sensor_id;sensor_type;location;lat;lon;timestamp;temperature;humidity
9941;DHT22;5009;50.656;7.188;2022-09-17T00:00:21;11.40;99.90
9941;DHT22;5009;50.656;7.188;2022-09-17T00:02:51;11.40;99.90
9941;DHT22;5009;50.656;7.188;2022-09-17T00:05:20;11.40;99.90
9941;DHT22;5009;50.656;7.188;2022-09-17T00:07:46;11.40;99.90
9941;DHT22;5009;50.656;7.188;2022-09-17T00:10:12;11.40;99.90
9941;DHT22;5009;50.656;7.188;2022-09-17T00:12:37;11.40;99.90
9941;DHT22;5009;50.656;7.188;2022-09-17T00:15:03;11.40;99.90
9941;DHT22;5009;50.656;7.188;2022-09-17T00:17:29;11.30;99.90
9941;DHT22;5009;50.656;7.188;2022-09-17T00:19:54;11.30;99.90
9941;DHT22;5009;50.656;7.188;2022-09-17T00:22:20;11.30;99.90
9941;DHT22;5009;50.656;7.188;2022-09-17T00:24:45;11.40;99.90
9941;DHT22;5009;50.656;7.188;2022-09-17T00:27:11;11.40;99.90
9941;DHT22;5009;50.656;7.188;2022-09-17T00:29:36;11.40;99.90
9941;DHT22;5009;50.656;7.188;2022-09-17T00:32:02;11.40;99.90
9941;DHT22;5009;50.656;7.188;2022-09-17T00:34:27;11.50;99.90
9941;DHT22;5009;50.656;7.188;2022-09-17T00:36:53;11.50;99.90
9941;DHT22;5009;50.656;7.188;2022-09-17T00:39:18;11.40;99.90
9941;DHT22;5009;50.656;7.188;2022-09-17T00:41:44;11.50;99.90
9941;DHT22;5009;50.656;7.188;2022-09-17T00:47:00;11.40;99.90
9941;DHT22;5009;50.656;7.188;2022-09-17T00:49:28;11.50;99.90
9941;DHT22;5009;50.656;7.188;2022-09-17T00:52:00;11.50;99.90
9941;DHT22;5009;50.656;7.188;2022-09-17T00:54:28;11.50;99.90
9941;DHT22;5009;50.656;7.188;2022-09-17T00:56:55;11.50;99.90
9941;DHT22;5009;50.656;7.188;2022-09-17T00:59:21;11.60;99.90
9941;DHT22;5009;50.656;7.188;2022-09-17T01:01:48;11.60;99.90
9941;DHT22;5009;50.656;7.188;2022-09-17T01:04:19;11.60;99.90
9941;DHT22;5009;50.656;7.188;2022-09-17T01:12:43;11.70;99.90
9941;DHT22;5009;50.656;7.188;2022-09-17T01:15:48;11.70;99.90
9941;DHT22;5009;50.656;7.188;2022-09-17T01:21:32;11.80;99.90
9941;DHT22;5009;50.656;7.188;2022-09-17T01:24:43;11.80;99.90
9941;DHT22;5009;50.656;7.188;2022-09-17T01:32:46;11.70;99.90
9941;DHT22;5009;50.656;7.188;2022-09-17T01:35:20;11.70;99.90
9941;DHT22;5009;50.656;7.188;2022-09-17T01:38:14;11.80;99.90
9941;DHT22;5009;50.656;7.188;2022-09-17T01:40:53;11.80;99.90
9941;DHT22;5009;50.656;7.188;2022-09-17T01:43:26;11.80;99.90
9941;DHT22;5009;50.656;7.188;2022-09-17T01:46:32;11.80;99.90
9941;DHT22;5009;50.656;7.188;2022-09-17T01:48:53;11.80;99.90
9941;DHT22;5009;50.656;7.188;2022-09-17T01:51:26;11.80;99.90
9941;DHT22;5009;50.656;7.188;2022-09-17T01:54:06;11.80;99.90
9941;DHT22;5009;50.656;7.188;2022-09-17T01:56:59;11.80;99.90
9941;DHT22;5009;50.656;7.188;2022-09-17T01:59:28;11.80;99.90
9941;DHT22;5009;50.656;7.188;2022-09-17T02:02:09;11.80;99.90
9941;DHT22;5009;50.656;7.188;2022-09-17T02:04:44;11.80;99.90
9941;DHT22;5009;50.656;7.188;2022-09-17T02:07:17;11.80;99.90
9941;DHT22;5009;50.656;7.188;2022-09-17T02:09:52;11.80;99.90
9941;DHT22;5009;50.656;7.188;2022-09-17T02:12:27;11.80;99.90
9941;DHT22;5009;50.656;7.188;2022-09-17T02:14:58;11.80;99.90
9941;DHT22;5009;50.656;7.188;2022-09-17T02:17:39;11.80;99.90
9941;DHT22;5009;50.656;7.188;2022-09-17T02:20:07;11.80;99.90
9941;DHT22;5009;50.656;7.188;2022-09-17T02:22:58;11.90;99.90
9941;DHT22;5009;50.656;7.188;2022-09-17T02:25:30;11.80;99.90
9941;DHT22;5009;50.656;7.188;2022-09-17T02:28:12;11.90;99.90
9941;DHT22;5009;50.656;7.188;2022-09-17T02:30:39;11.80;99.90
9941;DHT22;5009;50.656;7.188;2022-09-17T02:33:07;11.80;99.90
9941;DHT22;5009;50.656;7.188;2022-09-17T02:35:34;11.90;99.90
9941;DHT22;5009;50.656;7.188;2022-09-17T02:38:00;11.90;99.90
9941;DHT22;5009;50.656;7.188;2022-09-17T02:40:28;11.90;99.90
9941;DHT22;5009;50.656;7.188;2022-09-17T02:43:03;11.80;99.90
9941;DHT22;5009;50.656;7.188;2022-09-17T02:45:47;11.80;99.90
9941;DHT22;5009;50.656;7.188;2022-09-17T02:54:30;11.90;99.90
9941;DHT22;5009;50.656;7.188;2022-09-17T02:57:26;11.80;99.90
9941;DHT22;5009;50.656;7.188;2022-09-17T03:02:35;11.80;99.90
9941;DHT22;5009;50.656;7.188;2022-09-17T03:05:02;11.80;99.90
9941;DHT22;5009;50.656;7.188;2022-09-17T03:07:29;11.80;99.90
9941;DHT22;5009;50.656;7.188;2022-09-17T03:09:54;11.80;99.90
9941;DHT22;5009;50.656;7.188;2022-09-17T03:12:20;11.80;99.90
9941;DHT22;5009;50.656;7.188;2022-09-17T03:14:46;11.80;99.90
9941;DHT22;5009;50.656;7.188;2022-09-17T03:17:11;11.80;99.90
9941;DHT22;5009;50.656;7.188;2022-09-17T03:19:39;11.80;99.90
9941;DHT22;5009;50.656;7.188;2022-09-17T03:22:04;11.70;99.90
9941;DHT22;5009;50.656;7.188;2022-09-17T03:24:30;11.80;99.90
9941;DHT22;5009;50.656;7.188;2022-09-17T03:26:55;11.70;99.90
9941;DHT22;5009;50.656;7.188;2022-09-17T03:29:21;11.80;99.90
9941;DHT22;5009;50.656;7.188;2022-09-17T03:31:47;11.70;99.90
9941;DHT22;5009;50.656;7.188;2022-09-17T03:34:12;11.80;99.90
9941;DHT22;5009;50.656;7.188;2022-09-17T03:36:38;11.80;99.90
9941;DHT22;5009;50.656;7.188;2022-09-17T03:39:03;11.80;99.90
9941;DHT22;5009;50.656;7.188;2022-09-17T03:41:29;11.80;99.90
9941;DHT22;5009;50.656;7.188;2022-09-17T03:43:55;11.80;99.90
9941;DHT22;5009;50.656;7.188;2022-09-17T03:46:20;11.80;99.90
9941;DHT22;5009;50.656;7.188;2022-09-17T03:48:46;11.80;99.90
9941;DHT22;5009;50.656;7.188;2022-09-17T03:51:11;11.80;99.90
9941;DHT22;5009;50.656;7.188;2022-09-17T03:53:37;11.80;99.90
9941;DHT22;5009;50.656;7.188;2022-09-17T03:56:04;11.80;99.90
9941;DHT22;5009;50.656;7.188;2022-09-17T03:58:31;11.80;99.90
9941;DHT22;5009;50.656;7.188;2022-09-17T04:00:56;11.70;99.90
9941;DHT22;5009;50.656;7.188;2022-09-17T04:03:26;11.70;99.90
9941;DHT22;5009;50.656;7.188;2022-09-17T04:05:52;11.80;99.90
9941;DHT22;5009;50.656;7.188;2022-09-17T04:08:18;11.80;99.90
9941;DHT22;5009;50.656;7.188;2022-09-17T04:10:45;11.80;99.90
9941;DHT22;5009;50.656;7.188;2022-09-17T04:13:12;11.80;99.90
9941;DHT22;5009;50.656;7.188;2022-09-17T04:15:38;11.80;99.90
9941;DHT22;5009;50.656;7.188;2022-09-17T04:18:04;11.80;99.90
9941;DHT22;5009;50.656;7.188;2022-09-17T04:20:29;11.80;99.90
9941;DHT22;5009;50.656;7.188;2022-09-17T04:22:55;11.80;99.90
9941;DHT22;5009;50.656;7.188;2022-09-17T04:25:21;11.80;99.90
9941;DHT22;5009;50.656;7.188;2022-09-17T04:27:46;11.80;99.90
9941;DHT22;5009;50.656;7.188;2022-09-17T04:30:13;11.90;99.90
9941;DHT22;5009;50.656;7.188;2022-09-17T04:32:38;11.90;99.90
9941;DHT22;5009;50.656;7.188;2022-09-17T04:35:04;11.80;99.90
9941;DHT22;5009;50.656;7.188;2022-09-17T04:37:30;11.80;99.90
9941;DHT22;5009;50.656;7.188;2022-09-17T04:39:55;11.80;99.90
9941;DHT22;5009;50.656;7.188;2022-09-17T04:42:21;11.80;99.90
9941;DHT22;5009;50.656;7.188;2022-09-17T04:44:46;11.80;99.90
9941;DHT22;5009;50.656;7.188;2022-09-17T04:47:12;11.80;99.90
9941;DHT22;5009;50.656;7.188;2022-09-17T04:49:38;11.80;99.90
9941;DHT22;5009;50.656;7.188;2022-09-17T04:52:03;11.80;99.90
9941;DHT22;5009;50.656;7.188;2022-09-17T04:54:29;11.80;99.90
9941;DHT22;5009;50.656;7.188;2022-09-17T04:56:55;11.80;99.90
9941;DHT22;5009;50.656;7.188;2022-09-17T04:59:20;11.80;99.90
9941;DHT22;5009;50.656;7.188;2022-09-17T05:01:46;11.80;99.90
9941;DHT22;5009;50.656;7.188;2022-09-17T05:04:11;11.80;99.90
9941;DHT22;5009;50.656;7.188;2022-09-17T05:06:37;11.80;99.90
9941;DHT22;5009;50.656;7.188;2022-09-17T05:09:02;11.80;99.90
9941;DHT22;5009;50.656;7.188;2022-09-17T05:11:28;11.80;99.90
9941;DHT22;5009;50.656;7.188;2022-09-17T05:13:54;11.80;99.90
9941;DHT22;5009;50.656;7.188;2022-09-17T05:16:19;11.70;99.90
9941;DHT22;5009;50.656;7.188;2022-09-17T05:18:45;11.70;99.90
9941;DHT22;5009;50.656;7.188;2022-09-17T05:21:13;11.80;99.90
9941;DHT22;5009;50.656;7.188;2022-09-17T05:23:38;11.80;99.90
9941;DHT22;5009;50.656;7.188;2022-09-17T05:26:04;11.80;99.90
9941;DHT22;5009;50.656;7.188;2022-09-17T05:28:29;11.70;99.90
9941;DHT22;5009;50.656;7.188;2022-09-17T05:30:58;11.80;99.90
9941;DHT22;5009;50.656;7.188;2022-09-17T05:33:24;11.80;99.90
9941;DHT22;5009;50.656;7.188;2022-09-17T05:35:49;11.80;99.90
9941;DHT22;5009;50.656;7.188;2022-09-17T05:38:15;11.80;99.90
9941;DHT22;5009;50.656;7.188;2022-09-17T05:40:42;11.90;99.90
9941;DHT22;5009;50.656;7.188;2022-09-17T05:43:08;11.90;99.90
9941;DHT22;5009;50.656;7.188;2022-09-17T05:45:35;12.00;99.90
9941;DHT22;5009;50.656;7.188;2022-09-17T05:48:02;12.00;99.90
9941;DHT22;5009;50.656;7.188;2022-09-17T05:50:29;12.10;99.90
9941;DHT22;5009;50.656;7.188;2022-09-17T05:52:55;12.20;99.90
9941;DHT22;5009;50.656;7.188;2022-09-17T05:55:22;12.30;99.90
9941;DHT22;5009;50.656;7.188;2022-09-17T05:57:49;12.40;99.90
9941;DHT22;5009;50.656;7.188;2022-09-17T06:00:15;12.50;99.90
9941;DHT22;5009;50.656;7.188;2022-09-17T06:02:40;12.60;99.90
9941;DHT22;5009;50.656;7.188;2022-09-17T06:05:06;12.70;99.90
9941;DHT22;5009;50.656;7.188;2022-09-17T06:07:34;12.70;99.90
9941;DHT22;5009;50.656;7.188;2022-09-17T06:10:01;12.80;99.90
9941;DHT22;5009;50.656;7.188;2022-09-17T06:12:26;12.80;99.90
9941;DHT22;5009;50.656;7.188;2022-09-17T06:14:52;12.80;99.90
9941;DHT22;5009;50.656;7.188;2022-09-17T06:17:17;12.90;99.90
9941;DHT22;5009;50.656;7.188;2022-09-17T06:19:43;13.10;99.90
9941;DHT22;5009;50.656;7.188;2022-09-17T06:22:08;13.20;99.90
9941;DHT22;5009;50.656;7.188;2022-09-17T06:24:34;13.30;99.90
9941;DHT22;5009;50.656;7.188;2022-09-17T06:26:59;13.50;99.90
9941;DHT22;5009;50.656;7.188;2022-09-17T06:29:25;13.60;99.90
9941;DHT22;5009;50.656;7.188;2022-09-17T06:31:51;13.80;99.90
9941;DHT22;5009;50.656;7.188;2022-09-17T06:34:17;13.90;99.90
9941;DHT22;5009;50.656;7.188;2022-09-17T06:36:43;14.20;99.90
9941;DHT22;5009;50.656;7.188;2022-09-17T06:39:09;14.50;99.90
9941;DHT22;5009;50.656;7.188;2022-09-17T06:41:36;14.70;99.90
9941;DHT22;5009;50.656;7.188;2022-09-17T06:44:03;15.00;99.90
9941;DHT22;5009;50.656;7.188;2022-09-17T06:46:29;15.20;99.90
9941;DHT22;5009;50.656;7.188;2022-09-17T06:48:54;15.30;99.90
9941;DHT22;5009;50.656;7.188;2022-09-17T06:51:20;15.20;99.90
9941;DHT22;5009;50.656;7.188;2022-09-17T06:53:47;15.20;99.90
9941;DHT22;5009;50.656;7.188;2022-09-17T06:56:13;15.10;99.90
9941;DHT22;5009;50.656;7.188;2022-09-17T06:58:39;15.30;99.90
9941;DHT22;5009;50.656;7.188;2022-09-17T07:01:09;15.40;99.90
9941;DHT22;5009;50.656;7.188;2022-09-17T07:03:35;15.40;99.90
9941;DHT22;5009;50.656;7.188;2022-09-17T07:06:02;15.40;99.90
9941;DHT22;5009;50.656;7.188;2022-09-17T07:08:27;15.60;99.90
9941;DHT22;5009;50.656;7.188;2022-09-17T07:10:56;16.10;99.90
9941;DHT22;5009;50.656;7.188;2022-09-17T07:13:22;16.60;99.90
9941;DHT22;5009;50.656;7.188;2022-09-17T07:15:59;17.10;99.90
9941;DHT22;5009;50.656;7.188;2022-09-17T07:18:25;17.50;99.90
9941;DHT22;5009;50.656;7.188;2022-09-17T07:20:56;17.80;99.50
9941;DHT22;5009;50.656;7.188;2022-09-17T07:23:27;17.80;98.50
9941;DHT22;5009;50.656;7.188;2022-09-17T07:26:00;17.40;98.90
9941;DHT22;5009;50.656;7.188;2022-09-17T07:28:27;17.00;99.90
9941;DHT22;5009;50.656;7.188;2022-09-17T07:30:53;16.50;99.90
9941;DHT22;5009;50.656;7.188;2022-09-17T07:33:22;16.20;99.90
9941;DHT22;5009;50.656;7.188;2022-09-17T07:35:59;16.00;99.90
9941;DHT22;5009;50.656;7.188;2022-09-17T07:38:26;15.80;99.90
9941;DHT22;5009;50.656;7.188;2022-09-17T07:40:59;15.60;99.90
9941;DHT22;5009;50.656;7.188;2022-09-17T07:43:30;15.40;99.90
9941;DHT22;5009;50.656;7.188;2022-09-17T07:45:57;15.30;99.90
9941;DHT22;5009;50.656;7.188;2022-09-17T07:48:23;15.20;99.90
9941;DHT22;5009;50.656;7.188;2022-09-17T07:50:50;15.20;99.90
9941;DHT22;5009;50.656;7.188;2022-09-17T07:53:15;15.10;99.90
9941;DHT22;5009;50.656;7.188;2022-09-17T07:55:41;15.00;99.90
9941;DHT22;5009;50.656;7.188;2022-09-17T07:58:08;15.00;99.90
9941;DHT22;5009;50.656;7.188;2022-09-17T08:00:34;15.00;99.90
9941;DHT22;5009;50.656;7.188;2022-09-17T08:02:59;14.90;99.90
9941;DHT22;5009;50.656;7.188;2022-09-17T08:05:25;14.90;99.90
9941;DHT22;5009;50.656;7.188;2022-09-17T08:07:52;14.80;99.90
9941;DHT22;5009;50.656;7.188;2022-09-17T08:10:19;14.80;99.90
9941;DHT22;5009;50.656;7.188;2022-09-17T08:12:52;14.90;99.90
9941;DHT22;5009;50.656;7.188;2022-09-17T08:15:18;15.10;99.90
9941;DHT22;5009;50.656;7.188;2022-09-17T08:17:45;15.50;99.90
9941;DHT22;5009;50.656;7.188;2022-09-17T08:20:11;16.20;99.90
9941;DHT22;5009;50.656;7.188;2022-09-17T08:22:37;16.40;99.90
9941;DHT22;5009;50.656;7.188;2022-09-17T08:25:04;16.50;99.90
9941;DHT22;5009;50.656;7.188;2022-09-17T08:27:30;16.50;99.90
9941;DHT22;5009;50.656;7.188;2022-09-17T08:29:56;16.50;99.90
9941;DHT22;5009;50.656;7.188;2022-09-17T08:32:22;16.70;99.90
9941;DHT22;5009;50.656;7.188;2022-09-17T08:34:47;16.60;99.90
9941;DHT22;5009;50.656;7.188;2022-09-17T08:37:13;16.80;99.60
9941;DHT22;5009;50.656;7.188;2022-09-17T08:39:38;16.90;98.50
9941;DHT22;5009;50.656;7.188;2022-09-17T08:42:29;17.10;98.50
9941;DHT22;5009;50.656;7.188;2022-09-17T08:44:57;17.10;97.50
9941;DHT22;5009;50.656;7.188;2022-09-17T08:47:33;17.20;96.70
9941;DHT22;5009;50.656;7.188;2022-09-17T08:50:04;17.50;96.60
9941;DHT22;5009;50.656;7.188;2022-09-17T08:55:21;17.60;95.30
9941;DHT22;5009;50.656;7.188;2022-09-17T09:04:19;17.40;95.40
9941;DHT22;5009;50.656;7.188;2022-09-17T09:06:27;17.40;94.30
9941;DHT22;5009;50.656;7.188;2022-09-17T09:09:00;17.40;94.80
9941;DHT22;5009;50.656;7.188;2022-09-17T09:11:29;17.60;94.70
9941;DHT22;5009;50.656;7.188;2022-09-17T09:16:48;17.60;94.70
9941;DHT22;5009;50.656;7.188;2022-09-17T09:19:40;17.70;93.90
9941;DHT22;5009;50.656;7.188;2022-09-17T09:24:41;17.70;92.80
9941;DHT22;5009;50.656;7.188;2022-09-17T09:27:32;17.80;92.70
9941;DHT22;5009;50.656;7.188;2022-09-17T09:30:12;17.80;92.60
9941;DHT22;5009;50.656;7.188;2022-09-17T09:35:18;17.70;92.50
9941;DHT22;5009;50.656;7.188;2022-09-17T09:37:52;17.80;92.50
9941;DHT22;5009;50.656;7.188;2022-09-17T09:40:51;18.00;92.90
9941;DHT22;5009;50.656;7.188;2022-09-17T09:43:21;18.00;91.00
9941;DHT22;5009;50.656;7.188;2022-09-17T09:51:30;18.00;91.40
9941;DHT22;5009;50.656;7.188;2022-09-17T09:56:52;17.80;91.10
9941;DHT22;5009;50.656;7.188;2022-09-17T09:59:19;18.00;91.50
9941;DHT22;5009;50.656;7.188;2022-09-17T10:01:45;18.00;91.20
9941;DHT22;5009;50.656;7.188;2022-09-17T10:04:25;17.90;90.70
9941;DHT22;5009;50.656;7.188;2022-09-17T10:07:08;17.80;91.10
9941;DHT22;5009;50.656;7.188;2022-09-17T10:09:37;17.80;91.00
9941;DHT22;5009;50.656;7.188;2022-09-17T10:12:05;17.70;90.20
9941;DHT22;5009;50.656;7.188;2022-09-17T10:14:36;17.60;89.20
9941;DHT22;5009;50.656;7.188;2022-09-17T10:17:22;17.70;88.70
9941;DHT22;5009;50.656;7.188;2022-09-17T10:22:39;17.60;88.00
9941;DHT22;5009;50.656;7.188;2022-09-17T10:25:17;17.60;89.90
9941;DHT22;5009;50.656;7.188;2022-09-17T10:27:47;17.50;90.30
9941;DHT22;5009;50.656;7.188;2022-09-17T10:30:17;17.50;89.90
9941;DHT22;5009;50.656;7.188;2022-09-17T10:32:43;17.40;88.80
9941;DHT22;5009;50.656;7.188;2022-09-17T10:35:29;17.30;89.00
9941;DHT22;5009;50.656;7.188;2022-09-17T10:37:55;17.40;90.00
9941;DHT22;5009;50.656;7.188;2022-09-17T10:40:27;17.50;90.10
9941;DHT22;5009;50.656;7.188;2022-09-17T10:45:41;17.60;88.40
9941;DHT22;5009;50.656;7.188;2022-09-17T10:48:14;17.70;89.30
9941;DHT22;5009;50.656;7.188;2022-09-17T10:50:40;17.90;90.20
9941;DHT22;5009;50.656;7.188;2022-09-17T10:53:15;18.00;88.60
9941;DHT22;5009;50.656;7.188;2022-09-17T11:04:20;17.80;85.30
9941;DHT22;5009;50.656;7.188;2022-09-17T11:26:02;17.60;91.50
9941;DHT22;5009;50.656;7.188;2022-09-17T11:34:15;17.30;93.40
9941;DHT22;5009;50.656;7.188;2022-09-17T11:39:43;17.20;94.00
9941;DHT22;5009;50.656;7.188;2022-09-17T11:42:17;17.30;93.60
9941;DHT22;5009;50.656;7.188;2022-09-17T11:44:46;17.30;92.80
9941;DHT22;5009;50.656;7.188;2022-09-17T11:47:21;17.40;92.50
9941;DHT22;5009;50.656;7.188;2022-09-17T11:49:55;17.40;92.70
9941;DHT22;5009;50.656;7.188;2022-09-17T11:52:33;17.30;92.10
9941;DHT22;5009;50.656;7.188;2022-09-17T11:55:25;17.20;91.80
9941;DHT22;5009;50.656;7.188;2022-09-17T11:58:36;17.30;91.80
9941;DHT22;5009;50.656;7.188;2022-09-17T12:02:11;17.20;91.30
9941;DHT22;5009;50.656;7.188;2022-09-17T12:07:02;17.10;91.30
9941;DHT22;5009;50.656;7.188;2022-09-17T12:09:32;17.00;90.10
9941;DHT22;5009;50.656;7.188;2022-09-17T12:12:16;17.00;90.40
9941;DHT22;5009;50.656;7.188;2022-09-17T12:14:50;17.00;90.30
9941;DHT22;5009;50.656;7.188;2022-09-17T12:17:24;17.00;90.40
9941;DHT22;5009;50.656;7.188;2022-09-17T12:19:56;17.00;89.40
9941;DHT22;5009;50.656;7.188;2022-09-17T12:22:26;17.10;88.80
9941;DHT22;5009;50.656;7.188;2022-09-17T12:24:53;17.10;89.80
9941;DHT22;5009;50.656;7.188;2022-09-17T12:30:20;17.00;92.10
9941;DHT22;5009;50.656;7.188;2022-09-17T12:36:07;16.80;90.80
9941;DHT22;5009;50.656;7.188;2022-09-17T12:44:09;16.60;94.00
9941;DHT22;5009;50.656;7.188;2022-09-17T12:49:42;16.60;95.10
9941;DHT22;5009;50.656;7.188;2022-09-17T13:00:13;16.80;94.60
9941;DHT22;5009;50.656;7.188;2022-09-17T13:05:44;16.50;97.30
9941;DHT22;5009;50.656;7.188;2022-09-17T13:08:24;16.40;99.90
9941;DHT22;5009;50.656;7.188;2022-09-17T13:11:17;16.20;99.90
9941;DHT22;5009;50.656;7.188;2022-09-17T13:16:40;16.20;99.90
9941;DHT22;5009;50.656;7.188;2022-09-17T13:19:32;16.20;99.90
9941;DHT22;5009;50.656;7.188;2022-09-17T13:22:04;16.40;99.90
9941;DHT22;5009;50.656;7.188;2022-09-17T13:24:32;16.40;99.90
9941;DHT22;5009;50.656;7.188;2022-09-17T13:27:00;16.50;99.90
9941;DHT22;5009;50.656;7.188;2022-09-17T13:37:39;16.80;99.90
9941;DHT22;5009;50.656;7.188;2022-09-17T13:42:50;16.80;99.90
9941;DHT22;5009;50.656;7.188;2022-09-17T13:45:20;16.80;99.90
9941;DHT22;5009;50.656;7.188;2022-09-17T13:48:07;16.80;99.90
9941;DHT22;5009;50.656;7.188;2022-09-17T13:50:43;16.70;99.90
9941;DHT22;5009;50.656;7.188;2022-09-17T13:55:51;16.80;99.90
9941;DHT22;5009;50.656;7.188;2022-09-17T14:01:11;17.00;99.90
9941;DHT22;5009;50.656;7.188;2022-09-17T14:13:56;16.00;94.20
9941;DHT22;5009;50.656;7.188;2022-09-17T14:16:32;15.80;94.70
9941;DHT22;5009;50.656;7.188;2022-09-17T14:24:46;15.40;95.60
9941;DHT22;5009;50.656;7.188;2022-09-17T14:27:40;15.30;94.80
9941;DHT22;5009;50.656;7.188;2022-09-17T14:33:14;15.20;94.00
9941;DHT22;5009;50.656;7.188;2022-09-17T14:35:45;15.30;94.00
9941;DHT22;5009;50.656;7.188;2022-09-17T14:41:16;15.30;93.10
9941;DHT22;5009;50.656;7.188;2022-09-17T14:43:50;15.50;93.90
9941;DHT22;5009;50.656;7.188;2022-09-17T14:46:23;15.60;94.20
9941;DHT22;5009;50.656;7.188;2022-09-17T14:48:49;15.60;93.10
9941;DHT22;5009;50.656;7.188;2022-09-17T14:53:48;15.40;93.70
9941;DHT22;5009;50.656;7.188;2022-09-17T14:56:16;15.30;93.20
9941;DHT22;5009;50.656;7.188;2022-09-17T14:58:53;15.30;93.80
9941;DHT22;5009;50.656;7.188;2022-09-17T15:01:27;15.30;94.30
9941;DHT22;5009;50.656;7.188;2022-09-17T15:06:37;15.20;94.70
9941;DHT22;5009;50.656;7.188;2022-09-17T15:09:02;15.20;95.60
9941;DHT22;5009;50.656;7.188;2022-09-17T15:11:30;15.20;97.20
9941;DHT22;5009;50.656;7.188;2022-09-17T15:13:58;15.30;99.30
9941;DHT22;5009;50.656;7.188;2022-09-17T15:16:25;15.50;98.70
9941;DHT22;5009;50.656;7.188;2022-09-17T15:18:59;15.60;98.60
9941;DHT22;5009;50.656;7.188;2022-09-17T15:21:43;15.70;98.20
9941;DHT22;5009;50.656;7.188;2022-09-17T15:26:36;15.60;97.00
9941;DHT22;5009;50.656;7.188;2022-09-17T15:29:04;15.40;99.70
9941;DHT22;5009;50.656;7.188;2022-09-17T15:31:30;15.10;99.90
9941;DHT22;5009;50.656;7.188;2022-09-17T15:33:58;14.90;99.90
9941;DHT22;5009;50.656;7.188;2022-09-17T15:36:25;15.00;99.90
9941;DHT22;5009;50.656;7.188;2022-09-17T15:38:57;15.00;99.90
9941;DHT22;5009;50.656;7.188;2022-09-17T15:41:27;15.00;99.90
9941;DHT22;5009;50.656;7.188;2022-09-17T15:43:56;14.90;99.90
9941;DHT22;5009;50.656;7.188;2022-09-17T15:46:31;14.90;99.90
9941;DHT22;5009;50.656;7.188;2022-09-17T15:48:59;14.90;99.90
9941;DHT22;5009;50.656;7.188;2022-09-17T15:51:33;14.90;99.90
9941;DHT22;5009;50.656;7.188;2022-09-17T15:54:02;14.70;99.90
9941;DHT22;5009;50.656;7.188;2022-09-17T15:56:37;14.60;99.90
9941;DHT22;5009;50.656;7.188;2022-09-17T15:59:20;14.50;99.90
9941;DHT22;5009;50.656;7.188;2022-09-17T16:04:28;14.20;99.90
9941;DHT22;5009;50.656;7.188;2022-09-17T16:12:05;13.80;99.90
9941;DHT22;5009;50.656;7.188;2022-09-17T16:14:31;13.60;99.90
9941;DHT22;5009;50.656;7.188;2022-09-17T16:16:56;13.60;99.90
9941;DHT22;5009;50.656;7.188;2022-09-17T16:19:24;13.60;99.90
9941;DHT22;5009;50.656;7.188;2022-09-17T16:21:49;13.60;99.90
9941;DHT22;5009;50.656;7.188;2022-09-17T16:24:15;13.50;99.90
9941;DHT22;5009;50.656;7.188;2022-09-17T16:26:41;13.40;99.90
9941;DHT22;5009;50.656;7.188;2022-09-17T16:29:12;13.40;99.90
9941;DHT22;5009;50.656;7.188;2022-09-17T16:31:39;13.40;99.90
9941;DHT22;5009;50.656;7.188;2022-09-17T16:34:04;13.40;99.90
9941;DHT22;5009;50.656;7.188;2022-09-17T16:36:30;13.30;99.90
9941;DHT22;5009;50.656;7.188;2022-09-17T16:38:57;13.40;99.90
9941;DHT22;5009;50.656;7.188;2022-09-17T16:41:22;13.40;99.90
9941;DHT22;5009;50.656;7.188;2022-09-17T16:43:48;13.40;99.90
9941;DHT22;5009;50.656;7.188;2022-09-17T16:46:14;13.40;99.90
9941;DHT22;5009;50.656;7.188;2022-09-17T16:48:39;13.30;99.90
9941;DHT22;5009;50.656;7.188;2022-09-17T16:51:10;13.30;99.90
9941;DHT22;5009;50.656;7.188;2022-09-17T16:53:36;13.30;99.90
9941;DHT22;5009;50.656;7.188;2022-09-17T16:56:09;13.20;99.90
9941;DHT22;5009;50.656;7.188;2022-09-17T16:58:35;13.10;99.90
9941;DHT22;5009;50.656;7.188;2022-09-17T17:01:11;13.10;99.90
9941;DHT22;5009;50.656;7.188;2022-09-17T17:03:37;13.00;99.90
9941;DHT22;5009;50.656;7.188;2022-09-17T17:06:03;13.00;99.90
9941;DHT22;5009;50.656;7.188;2022-09-17T17:08:30;12.90;99.90
9941;DHT22;5009;50.656;7.188;2022-09-17T17:10:56;12.90;99.90
9941;DHT22;5009;50.656;7.188;2022-09-17T17:13:22;12.90;99.90
9941;DHT22;5009;50.656;7.188;2022-09-17T17:15:47;12.80;99.90
9941;DHT22;5009;50.656;7.188;2022-09-17T17:18:13;12.80;99.90
9941;DHT22;5009;50.656;7.188;2022-09-17T17:20:39;12.80;99.90
9941;DHT22;5009;50.656;7.188;2022-09-17T17:23:04;12.70;99.90
9941;DHT22;5009;50.656;7.188;2022-09-17T17:25:30;12.70;99.90
9941;DHT22;5009;50.656;7.188;2022-09-17T17:27:56;12.60;99.90
9941;DHT22;5009;50.656;7.188;2022-09-17T17:30:22;12.60;99.90
9941;DHT22;5009;50.656;7.188;2022-09-17T17:32:49;12.50;99.90
9941;DHT22;5009;50.656;7.188;2022-09-17T17:35:15;12.50;99.90
9941;DHT22;5009;50.656;7.188;2022-09-17T17:37:41;12.40;99.90
9941;DHT22;5009;50.656;7.188;2022-09-17T17:40:07;12.40;99.90
9941;DHT22;5009;50.656;7.188;2022-09-17T17:42:36;12.30;99.90
9941;DHT22;5009;50.656;7.188;2022-09-17T17:45:05;12.30;99.90
9941;DHT22;5009;50.656;7.188;2022-09-17T17:47:31;12.30;99.90
9941;DHT22;5009;50.656;7.188;2022-09-17T17:49:56;12.30;99.90
9941;DHT22;5009;50.656;7.188;2022-09-17T17:52:22;12.30;99.90
9941;DHT22;5009;50.656;7.188;2022-09-17T17:54:47;12.30;99.90
9941;DHT22;5009;50.656;7.188;2022-09-17T17:57:13;12.20;99.90
9941;DHT22;5009;50.656;7.188;2022-09-17T17:59:38;12.20;99.90
9941;DHT22;5009;50.656;7.188;2022-09-17T18:02:04;12.10;99.90
9941;DHT22;5009;50.656;7.188;2022-09-17T18:04:30;12.00;99.90
9941;DHT22;5009;50.656;7.188;2022-09-17T18:06:55;12.00;99.90
9941;DHT22;5009;50.656;7.188;2022-09-17T18:09:21;12.00;99.90
9941;DHT22;5009;50.656;7.188;2022-09-17T18:11:46;11.90;99.90
9941;DHT22;5009;50.656;7.188;2022-09-17T18:14:12;11.90;99.90
9941;DHT22;5009;50.656;7.188;2022-09-17T18:16:38;11.90;99.90
9941;DHT22;5009;50.656;7.188;2022-09-17T18:19:04;11.90;99.90
9941;DHT22;5009;50.656;7.188;2022-09-17T18:21:30;11.90;99.90
9941;DHT22;5009;50.656;7.188;2022-09-17T18:23:56;11.90;99.90
9941;DHT22;5009;50.656;7.188;2022-09-17T18:26:25;12.00;99.90
9941;DHT22;5009;50.656;7.188;2022-09-17T18:28:51;11.90;99.90
9941;DHT22;5009;50.656;7.188;2022-09-17T18:33:46;12.00;99.90
9941;DHT22;5009;50.656;7.188;2022-09-17T18:36:12;12.00;99.90
9941;DHT22;5009;50.656;7.188;2022-09-17T18:38:37;12.00;99.90
9941;DHT22;5009;50.656;7.188;2022-09-17T18:41:05;12.00;99.90
9941;DHT22;5009;50.656;7.188;2022-09-17T18:43:34;12.00;99.90
9941;DHT22;5009;50.656;7.188;2022-09-17T18:46:00;12.00;99.90
9941;DHT22;5009;50.656;7.188;2022-09-17T18:48:26;12.00;99.90
9941;DHT22;5009;50.656;7.188;2022-09-17T18:51:06;12.00;99.90
9941;DHT22;5009;50.656;7.188;2022-09-17T18:53:34;12.00;99.90
9941;DHT22;5009;50.656;7.188;2022-09-17T18:56:24;11.90;99.90
9941;DHT22;5009;50.656;7.188;2022-09-17T18:58:52;12.00;99.90
9941;DHT22;5009;50.656;7.188;2022-09-17T19:01:20;12.00;99.90
9941;DHT22;5009;50.656;7.188;2022-09-17T19:03:46;12.00;99.90
9941;DHT22;5009;50.656;7.188;2022-09-17T19:06:13;12.00;99.90
9941;DHT22;5009;50.656;7.188;2022-09-17T19:08:40;12.10;99.90
9941;DHT22;5009;50.656;7.188;2022-09-17T19:11:06;12.10;99.90
9941;DHT22;5009;50.656;7.188;2022-09-17T19:13:34;12.10;99.90
9941;DHT22;5009;50.656;7.188;2022-09-17T19:16:00;12.10;99.90
9941;DHT22;5009;50.656;7.188;2022-09-17T19:18:26;12.10;99.90